| time (UTC) | temp F | wind direction | speed knots | gust knots | rain 1hr in | rain 24hr in | rain mn in | humidity % | barometer mb |
| 20260507233700 | 64 | 0.0 | 0.0 | 0.00 | 0.00 | 0.00 | 94 | 1664.9 | |
| 20260507231700 | 64 | 0.0 | 0.0 | 0.00 | 0.00 | 0.00 | 92 | 1700.5 | |
| 20260507225659 | 63 | 0.0 | 0.0 | 0.00 | 0.00 | 0.00 | 91 | 1700.2 | |
| 20260507223659 | 64 | 0.0 | 0.0 | 0.00 | 0.00 | 0.00 | 90 | 1700.6 | |
| 20260507221659 | 64 | 0.0 | 0.0 | 0.00 | 0.00 | 0.00 | 89 | 1700.8 | |
| 20260507215658 | 64 | 0.0 | 0.0 | 0.00 | 0.00 | 0.00 | 88 | 1701.1 | |
| 20260507213658 | 64 | 0.0 | 0.0 | 0.00 | 0.00 | 0.00 | 87 | 1701.4 | |
| 20260507211658 | 64 | 0.0 | 0.0 | 0.00 | 0.00 | 0.00 | 87 | 1701.3 | |
| 20260507205658 | 64 | 0.0 | 0.0 | 0.00 | 0.00 | 0.00 | 86 | 1701.6 | |
| 20260507203657 | 65 | 0.0 | 0.0 | 0.00 | 0.00 | 0.00 | 85 | 1701.9 | |
| 20260507201657 | 65 | 0.0 | 0.0 | 0.00 | 0.00 | 0.00 | 84 | 1701.8 | |
| 20260507195657 | 65 | 0.0 | 0.0 | 0.00 | 0.00 | 0.00 | 82 | 1702.0 | |
| 20260507193656 | 65 | 0.0 | 0.0 | 0.00 | 0.00 | 0.00 | 81 | 1702.1 | |
| 20260507191656 | 65 | 0.0 | 0.0 | 0.00 | 0.00 | 0.00 | 78 | 1702.9 | |
| 20260507185656 | 65 | 0.0 | 0.0 | 0.00 | 0.00 | 0.00 | 76 | 1702.8 | |
| 20260507183655 | 65 | 0.0 | 0.0 | 0.00 | 0.00 | 0.00 | 75 | 1702.3 | |
| 20260507181655 | 66 | 0.0 | 0.0 | 0.00 | 0.00 | 0.00 | 74 | 1703.8 | |
| 20260507175655 | 67 | 0.0 | 0.0 | 0.00 | 0.00 | 0.00 | 73 | 1704.7 | |
| 20260507173654 | 67 | 0.0 | 0.0 | 0.00 | 0.00 | 0.00 | 72 | 1705.5 | |
| 20260507171654 | 68 | 0.0 | 0.0 | 0.00 | 0.00 | 0.00 | 71 | 1706.3 | |
| 20260507165654 | 69 | 0.0 | 0.0 | 0.00 | 0.00 | 0.00 | 68 | 1708.5 | |
| 20260507163653 | 70 | 0.0 | 0.0 | 0.00 | 0.00 | 0.00 | 67 | 1708.8 | |
| 20260507161653 | 72 | 0.0 | 0.0 | 0.00 | 0.00 | 0.00 | 64 | 1711.9 | |
| 20260507155653 | 73 | 0.0 | 0.0 | 0.00 | 0.00 | 0.00 | 62 | 1713.2 | |
| 20260507153652 | 73 | 0.0 | 0.0 | 0.00 | 0.00 | 0.00 | 61 | 1713.4 | |
| 20260507151652 | 75 | 0.0 | 0.0 | 0.00 | 0.00 | 0.00 | 58 | 1716.0 | |
| 20260507145652 | 74 | 0.0 | 0.0 | 0.00 | 0.00 | 0.00 | 57 | 1715.9 | |
| 20260507143652 | 75 | 0.0 | 0.0 | 0.00 | 0.00 | 0.00 | 56 | 1716.6 | |
| 20260507141651 | 75 | 0.0 | 0.0 | 0.00 | 0.00 | 0.00 | 55 | 1716.1 | |
| 20260507135651 | 76 | 0.0 | 0.0 | 0.00 | 0.00 | 0.00 | 52 | 1717.4 | |
| 20260507133651 | 76 | 0.0 | 0.0 | 0.00 | 0.00 | 0.00 | 50 | 1718.3 | |
| 20260507131650 | 78 | 0.0 | 0.0 | 0.00 | 0.00 | 0.00 | 47 | 1720.9 | |
| 20260507125650 | 79 | 0.0 | 0.0 | 0.00 | 0.00 | 0.00 | 45 | 1721.8 | |
| 20260507123650 | 79 | 0.0 | 0.0 | 0.00 | 0.00 | 0.00 | 42 | 1722.7 | |
| 20260507121649 | 80 | 0.0 | 0.0 | 0.00 | 0.00 | 0.00 | 38 | 1724.0 | |
| 20260507115649 | 79 | 0.0 | 0.0 | 0.00 | 0.00 | 0.00 | 36 | 1722.8 | |
| 20260507113649 | 81 | 0.0 | 0.0 | 0.00 | 0.00 | 0.00 | 37 | 1725.6 | |
| 20260507111648 | 77 | 0.0 | 0.0 | 0.00 | 0.00 | 0.00 | 44 | 1719.5 | |
| 20260507105648 | 75 | 0.0 | 0.0 | 0.00 | 0.00 | 0.00 | 53 | 1716.9 | |
| 20260507103648 | 74 | 0.0 | 0.0 | 0.00 | 0.00 | 0.00 | 54 | 1714.9 | |
| 20260507101648 | 74 | 0.0 | 0.0 | 0.00 | 0.00 | 0.00 | 55 | 1714.6 | |
| 20260507095647 | 72 | 0.0 | 0.0 | 0.00 | 0.00 | 0.00 | 57 | 1712.3 | |
| 20260507093647 | 72 | 0.0 | 0.0 | 0.00 | 0.00 | 0.00 | 62 | 1711.7 | |
| 20260507091647 | 72 | 0.0 | 0.0 | 0.00 | 0.00 | 0.00 | 62 | 1712.0 | |
| 20260507085646 | 71 | 0.0 | 0.0 | 0.00 | 0.00 | 0.00 | 62 | 1711.3 | |
| 20260507083646 | 70 | 0.0 | 0.0 | 0.00 | 0.00 | 0.00 | 64 | 1710.0 | |
| 20260507081646 | 70 | 0.0 | 0.0 | 0.00 | 0.00 | 0.00 | 69 | 1710.1 | |
| 20260507075645 | 69 | 0.0 | 0.0 | 0.00 | 0.00 | 0.00 | 72 | 1708.3 | |
| 20260507073645 | 69 | 0.0 | 0.0 | 0.00 | 0.00 | 0.00 | 72 | 1708.5 | |
| 20260507071645 | 68 | 0.0 | 0.0 | 0.00 | 0.00 | 0.00 | 75 | 1706.5 | |
| 20260507065644 | 66 | 0.0 | 0.0 | 0.00 | 0.00 | 0.00 | 81 | 1704.1 | |
| 20260507063644 | 64 | 0.0 | 0.0 | 0.00 | 0.00 | 0.00 | 84 | 1700.7 | |
| 20260507061644 | 63 | 0.0 | 0.0 | 0.00 | 0.00 | 0.00 | 86 | 1699.2 | |
| 20260507055643 | 63 | 0.0 | 0.0 | 0.00 | 0.00 | 0.00 | 86 | 1699.1 | |
| 20260507053643 | 63 | 0.0 | 0.0 | 0.00 | 0.00 | 0.00 | 86 | 1699.3 | |
| 20260507051643 | 62 | 0.0 | 0.0 | 0.00 | 0.00 | 0.00 | 89 | 1697.6 | |
| 20260507045642 | 61 | 0.0 | 0.0 | 0.00 | 0.00 | 0.00 | 92 | 1545.7 | |
| 20260507043642 | 61 | 0.0 | 0.0 | 0.00 | 0.00 | 0.00 | 92 | 1392.6 | |
| 20260507041642 | 61 | 0.0 | 0.0 | 0.00 | 0.00 | 0.00 | 93 | 1312.8 | |
| 20260507035642 | 60 | 0.0 | 0.0 | 0.00 | 0.00 | 0.00 | 93 | 1350.6 | |
| 20260507033641 | 60 | 0.0 | 0.0 | 0.00 | 0.00 | 0.00 | 93 | 1424.7 | |
| 20260507031641 | 61 | 0.0 | 0.0 | 0.00 | 0.00 | 0.00 | 93 | 1313.7 | |
| 20260507025641 | 61 | 0.0 | 0.0 | 0.00 | 0.00 | 0.00 | 94 | 1216.6 | |
| 20260507023640 | 61 | 0.0 | 0.0 | 0.00 | 0.00 | 0.00 | 93 | 1339.8 | |
| 20260507021640 | 61 | 0.0 | 0.0 | 0.00 | 0.00 | 0.00 | 92 | 1444.2 | |
| 20260507015640 | 61 | 0.0 | 0.0 | 0.00 | 0.00 | 0.00 | 94 | 1027.5 | |
| 20260507013639 | 61 | 0.0 | 0.0 | 0.00 | 0.00 | 0.00 | 98 | 677.1 | |
| 20260507011639 | 61 | 0.0 | 0.0 | 0.00 | 0.00 | 0.00 | 99 | 605.9 | |
| 20260507005639 | 61 | 0.0 | 0.0 | 0.00 | 0.00 | 0.00 | 99 | 616.0 | |
| 20260507003638 | 62 | 0.0 | 0.0 | 0.00 | 0.00 | 0.00 | 99 | 684.2 | |
| 20260507001638 | 62 | 0.0 | 0.0 | 0.00 | 0.00 | 0.00 | 98 | 846.8 | |
| 20260506235638 | 62 | 0.0 | 0.0 | 0.00 | 0.00 | 0.00 | 97 | 1078.1 |